Time;durP1;ratioP1;P1;durP2;ratioP2;P2;SDS_P1;SDS_P2;PMS_P1;PMS_P2;Temp;Humidity;BMP_temperature;BMP_pressure;BME280_temperature;BME280_humidity;BME280_pressure;Samples;Min_cycle;Max_cycle;Signal;HPM_P1;HPM_P2
2023/11/27 00:01:42;;;;;;;27.23;16.60;;;;;;;9.91;72.65;100894.50;5013980;28;20065;-50
2023/11/27 00:04:08;;;;;;;29.10;15.32;;;;;;;10.26;72.34;100897.66;5013511;28;20053;-46
2023/11/27 00:06:33;;;;;;;27.77;15.27;;;;;;;10.31;72.15;100893.41;5013718;28;20504;-45
2023/11/27 00:08:58;;;;;;;27.58;15.40;;;;;;;10.45;71.63;100884.06;5013426;28;20099;-47
2023/11/27 00:11:24;;;;;;;29.75;15.88;;;;;;;10.05;72.63;100878.25;5013781;28;20088;-52
2023/11/27 00:13:49;;;;;;;29.33;16.30;;;;;;;10.24;71.78;100883.78;5012985;28;20037;-46
2023/11/27 00:16:15;;;;;;;30.75;16.08;;;;;;;10.30;71.10;100870.81;5013637;28;20033;-47
2023/11/27 00:18:40;;;;;;;31.33;16.83;;;;;;;10.24;71.94;100866.41;5013620;28;20050;-47
2023/11/27 00:21:06;;;;;;;32.42;17.23;;;;;;;10.18;71.84;100861.09;5012903;28;20500;-47
2023/11/27 00:23:31;;;;;;;27.70;16.50;;;;;;;10.48;70.93;100860.66;5013230;28;20034;-44
2023/11/27 00:25:56;;;;;;;29.85;15.80;;;;;;;10.46;70.83;100858.03;5012796;28;20541;-50
2023/11/27 00:28:22;;;;;;;33.13;15.60;;;;;;;10.33;70.37;100850.00;5013631;28;20034;-45
2023/11/27 00:30:47;;;;;;;28.35;15.65;;;;;;;10.46;70.48;100845.00;5013569;28;20041;-45
2023/11/27 00:33:14;;;;;;;32.65;15.82;;;;;;;10.34;70.52;100834.41;5012930;28;20058;-50
2023/11/27 00:35:40;;;;;;;29.70;15.43;;;;;;;10.30;70.54;100832.63;5013436;28;20084;-45
2023/11/27 00:38:05;;;;;;;26.60;14.57;;;;;;;10.10;70.92;100821.00;5013290;28;20407;-49
2023/11/27 00:40:31;;;;;;;32.70;15.27;;;;;;;10.30;70.32;100814.38;5014055;28;20022;-45
2023/11/27 00:42:56;;;;;;;29.27;15.07;;;;;;;10.31;70.77;100813.50;5013893;28;20407;-46
2023/11/27 00:45:21;;;;;;;29.30;14.43;;;;;;;10.29;70.63;100812.63;5014990;28;20042;-48
2023/11/27 00:47:47;;;;;;;28.40;14.88;;;;;;;10.46;70.10;100808.50;5014460;28;20041;-45
2023/11/27 00:50:12;;;;;;;26.33;14.30;;;;;;;10.52;69.32;100798.16;5013604;28;20080;-45
2023/11/27 00:52:37;;;;;;;26.08;14.27;;;;;;;10.32;69.66;100789.19;5012372;28;20034;-47
2023/11/27 00:55:03;;;;;;;26.40;14.18;;;;;;;10.45;69.41;100778.06;5012710;28;20092;-45
2023/11/27 00:57:29;;;;;;;29.30;13.82;;;;;;;10.26;70.06;100781.31;5014789;28;20030;-44
2023/11/27 00:59:54;;;;;;;24.50;13.43;;;;;;;10.39;69.80;100770.19;5013943;28;20048;-45
2023/11/27 01:02:19;;;;;;;26.55;13.27;;;;;;;10.12;70.42;100768.06;5013811;28;20041;-44
2023/11/27 01:04:45;;;;;;;24.65;13.60;;;;;;;10.33;69.97;100766.63;5012885;28;20037;-46
2023/11/27 01:07:10;;;;;;;24.50;12.65;;;;;;;10.47;68.95;100758.13;5012336;28;20078;-46
2023/11/27 01:09:38;;;;;;;23.85;13.93;;;;;;;10.32;70.14;100750.13;5012488;28;20030;-47
2023/11/27 01:12:04;;;;;;;21.92;12.73;;;;;;;10.18;70.07;100748.22;5012222;28;20495;-49
2023/11/27 01:14:29;;;;;;;23.73;12.88;;;;;;;9.92;70.59;100743.50;5013955;28;20032;-46
2023/11/27 01:16:56;;;;;;;27.02;13.68;;;;;;;10.10;70.74;100735.91;5013324;28;20042;-49
2023/11/27 01:19:22;;;;;;;25.15;12.82;;;;;;;10.08;70.76;100736.75;5013778;28;20034;-46
2023/11/27 01:21:48;;;;;;;23.25;12.82;;;;;;;10.34;70.40;100721.47;5013628;28;20389;-44
2023/11/27 01:24:13;;;;;;;23.80;12.45;;;;;;;10.25;69.96;100721.34;5013390;28;20032;-48
2023/11/27 01:26:39;;;;;;;18.98;12.45;;;;;;;10.35;70.10;100718.91;5013745;28;20125;-49
2023/11/27 01:29:04;;;;;;;24.98;12.52;;;;;;;10.30;70.00;100714.50;5013120;28;20026;-43
2023/11/27 01:31:29;;;;;;;22.73;13.20;;;;;;;10.25;69.63;100706.59;5012705;28;20041;-46
2023/11/27 01:33:55;;;;;;;23.63;13.57;;;;;;;10.11;70.61;100696.00;5011808;28;20069;-45
2023/11/27 01:36:20;;;;;;;23.75;13.35;;;;;;;10.23;70.59;100702.25;5010913;28;20037;-44
2023/11/27 01:38:45;;;;;;;24.23;13.40;;;;;;;10.07;70.79;100690.72;5012126;28;20461;-48
2023/11/27 01:41:11;;;;;;;22.63;12.82;;;;;;;10.22;70.38;100692.66;5011643;28;20575;-45
2023/11/27 01:43:36;;;;;;;22.20;13.10;;;;;;;10.25;70.12;100674.44;5012078;28;20080;-47
2023/11/27 01:46:24;;;;;;;22.02;12.80;;;;;;;10.28;70.05;100683.19;5011786;28;20041;-54
2023/11/27 01:48:52;;;;;;;23.05;13.23;;;;;;;10.06;70.65;100673.34;5011452;28;20030;-48
2023/11/27 01:51:17;;;;;;;25.77;12.60;;;;;;;10.16;70.62;100664.78;5012123;28;20037;-48
2023/11/27 01:53:43;;;;;;;23.55;12.65;;;;;;;9.90;72.11;100666.19;5011795;28;20030;-47
2023/11/27 01:56:09;;;;;;;21.80;12.88;;;;;;;9.94;71.91;100663.63;5011809;28;20076;-46
2023/11/27 01:58:35;;;;;;;23.83;12.18;;;;;;;9.90;72.06;100654.03;5011351;28;20118;-48
2023/11/27 02:01:00;;;;;;;21.55;12.90;;;;;;;9.58;72.32;100650.13;5011642;28;20121;-46
2023/11/27 02:03:26;;;;;;;20.13;11.82;;;;;;;10.08;71.53;100636.03;5011421;28;20469;-45
2023/11/27 02:05:51;;;;;;;19.88;11.50;;;;;;;9.75;72.37;100618.28;5011828;28;20542;-46
2023/11/27 02:08:18;;;;;;;19.85;11.50;;;;;;;9.56;72.90;100629.31;5011517;28;20041;-45
2023/11/27 02:10:43;;;;;;;19.40;11.82;;;;;;;9.62;73.65;100628.53;5011928;28;20091;-47
2023/11/27 02:13:09;;;;;;;21.55;11.40;;;;;;;9.93;72.48;100628.06;5011532;28;20037;-45
2023/11/27 02:15:35;;;;;;;20.45;11.65;;;;;;;10.03;71.85;100618.63;5011922;28;20033;-46
2023/11/27 02:18:00;;;;;;;21.80;11.93;;;;;;;10.06;71.72;100605.63;5011658;28;20125;-43
2023/11/27 02:20:26;;;;;;;17.90;10.90;;;;;;;9.84;72.89;100609.72;5012823;28;20556;-47
2023/11/27 02:22:51;;;;;;;21.40;11.07;;;;;;;9.96;72.16;100596.81;5012830;28;20038;-47
2023/11/27 02:25:16;;;;;;;19.85;10.93;;;;;;;9.77;72.74;100587.06;5012430;28;20430;-45
2023/11/27 02:27:42;;;;;;;21.85;10.80;;;;;;;9.93;72.41;100583.78;5012592;28;20088;-48
2023/11/27 02:30:07;;;;;;;17.40;10.90;;;;;;;9.93;71.94;100588.13;5011789;28;20042;-44
2023/11/27 02:32:33;;;;;;;19.05;11.23;;;;;;;9.84;72.25;100578.47;5011583;28;20160;-47
2023/11/27 02:34:58;;;;;;;18.05;10.68;;;;;;;9.92;71.80;100575.94;5010850;28;20038;-48
2023/11/27 02:37:24;;;;;;;18.58;10.88;;;;;;;9.66;72.93;100573.91;5010989;28;20444;-47
2023/11/27 02:39:49;;;;;;;19.23;11.35;;;;;;;9.96;72.30;100562.97;5010831;28;20573;-47
2023/11/27 02:42:14;;;;;;;17.42;10.70;;;;;;;9.83;72.03;100562.81;5010859;28;20507;-51
2023/11/27 02:44:39;;;;;;;22.02;10.63;;;;;;;9.56;73.33;100551.25;5010865;28;20033;-45
2023/11/27 02:47:05;;;;;;;19.90;10.25;;;;;;;9.61;73.89;100553.91;5010432;28;20125;-45
2023/11/27 02:49:30;;;;;;;17.67;9.85;;;;;;;9.59;73.69;100545.19;5010071;28;20034;-45
2023/11/27 02:51:56;;;;;;;16.65;9.98;;;;;;;9.87;72.55;100539.47;5010359;28;20030;-46
2023/11/27 02:54:21;;;;;;;17.73;9.98;;;;;;;9.70;72.94;100539.25;5010723;28;20040;-46
2023/11/27 02:56:46;;;;;;;14.60;9.30;;;;;;;9.68;73.06;100525.38;5010578;28;20093;-49
2023/11/27 02:59:13;;;;;;;16.92;9.40;;;;;;;9.83;72.73;100531.56;5010241;28;20377;-47
2023/11/27 03:01:39;;;;;;;13.55;8.93;;;;;;;9.47;73.33;100525.09;5010608;28;20041;-46
2023/11/27 03:04:04;;;;;;;14.55;9.25;;;;;;;9.82;72.61;100516.84;5009484;28;20034;-45
2023/11/27 03:06:29;;;;;;;15.13;8.95;;;;;;;9.25;73.16;100513.56;5010908;28;20439;-52
2023/11/27 03:08:54;;;;;;;18.52;9.68;;;;;;;9.13;74.69;100518.59;5010449;28;20033;-45
2023/11/27 03:11:20;;;;;;;15.75;8.80;;;;;;;9.58;73.11;100502.66;5009932;28;20034;-48
2023/11/27 03:13:45;;;;;;;13.23;8.73;;;;;;;9.51;73.49;100495.69;5010744;28;20033;-43
2023/11/27 03:16:11;;;;;;;14.02;8.80;;;;;;;9.57;73.16;100494.88;5010160;28;20033;-49
2023/11/27 03:18:36;;;;;;;14.38;9.25;;;;;;;9.61;72.83;100488.84;5010183;28;20044;-51
2023/11/27 03:21:04;;;;;;;15.20;8.90;;;;;;;9.75;72.30;100488.13;5009917;28;20038;-45
2023/11/27 03:23:29;;;;;;;13.70;8.65;;;;;;;9.72;72.91;100472.47;5010370;28;20041;-48
2023/11/27 03:25:55;;;;;;;13.95;9.00;;;;;;;9.48;73.24;100471.31;5009103;28;20033;-49
2023/11/27 03:28:20;;;;;;;16.33;9.30;;;;;;;9.58;72.62;100471.44;5010072;28;20077;-51
2023/11/27 03:30:45;;;;;;;13.52;8.95;;;;;;;9.51;73.44;100466.19;5009514;28;20113;-46
2023/11/27 03:33:11;;;;;;;14.48;9.02;;;;;;;9.74;72.94;100457.75;5009689;28;20518;-47
2023/11/27 03:35:36;;;;;;;13.45;9.07;;;;;;;9.73;72.98;100456.00;5009568;28;20034;-49
2023/11/27 03:38:02;;;;;;;15.75;9.73;;;;;;;9.28;73.96;100451.16;5009898;28;20048;-46
2023/11/27 03:40:27;;;;;;;16.70;8.80;;;;;;;9.85;72.68;100446.56;5010097;28;20088;-45
2023/11/27 03:42:52;;;;;;;14.30;9.23;;;;;;;9.84;72.13;100443.06;5009830;28;20053;-47
2023/11/27 03:45:18;;;;;;;14.90;8.88;;;;;;;9.45;73.58;100430.56;5010210;28;20033;-49
2023/11/27 03:47:43;;;;;;;14.73;9.40;;;;;;;9.67;72.98;100434.25;5010222;28;20042;-51
2023/11/27 03:50:10;;;;;;;14.75;9.43;;;;;;;9.47;74.12;100428.81;5009469;28;20140;-44
2023/11/27 03:52:36;;;;;;;14.98;9.50;;;;;;;9.46;73.39;100421.00;5009858;28;20030;-46
2023/11/27 03:55:01;;;;;;;14.48;9.52;;;;;;;9.46;74.02;100424.47;5009405;28;20443;-46
2023/11/27 03:57:26;;;;;;;16.20;9.80;;;;;;;9.75;72.62;100410.03;5010035;28;20121;-48
2023/11/27 03:59:52;;;;;;;14.43;9.77;;;;;;;9.37;73.90;100411.38;5009307;28;20180;-50
2023/11/27 04:02:17;;;;;;;14.45;9.80;;;;;;;9.10;74.48;100395.44;5010284;28;20129;-46
2023/11/27 04:04:43;;;;;;;16.45;9.27;;;;;;;9.50;73.36;100394.16;5010257;28;20108;-45
2023/11/27 04:07:08;;;;;;;14.35;8.98;;;;;;;9.66;72.70;100381.31;5009401;28;20034;-47
2023/11/27 04:09:34;;;;;;;15.20;8.90;;;;;;;9.53;73.57;100376.84;5009904;28;20091;-47
2023/11/27 04:11:59;;;;;;;12.82;8.45;;;;;;;9.54;73.07;100376.00;5009004;28;20045;-48
2023/11/27 04:14:24;;;;;;;13.60;8.50;;;;;;;9.52;73.09;100364.69;5009921;28;20041;-50
2023/11/27 04:16:50;;;;;;;13.07;8.48;;;;;;;9.68;73.07;100365.72;5009249;28;20037;-49
2023/11/27 04:19:15;;;;;;;15.13;8.90;;;;;;;9.59;72.71;100370.81;5009645;28;20048;-46
2023/11/27 04:21:40;;;;;;;14.48;9.32;;;;;;;9.65;72.67;100353.53;5009922;28;20029;-42
2023/11/27 04:24:06;;;;;;;18.15;10.00;;;;;;;9.77;72.33;100351.03;5009427;28;20074;-45
2023/11/27 04:26:31;;;;;;;15.55;9.82;;;;;;;9.69;72.43;100349.25;5010065;28;20042;-47
2023/11/27 04:28:56;;;;;;;16.75;10.30;;;;;;;9.47;72.90;100336.88;5009653;28;20038;-45
2023/11/27 04:31:22;;;;;;;16.63;10.85;;;;;;;9.60;72.96;100333.53;5010143;28;20668;-49
2023/11/27 04:33:47;;;;;;;16.77;10.68;;;;;;;9.61;72.82;100330.94;5009998;28;20030;-49
2023/11/27 04:36:18;;;;;;;16.65;10.50;;;;;;;9.57;72.86;100328.31;5009231;28;20107;-45
2023/11/27 04:38:43;;;;;;;17.65;10.40;;;;;;;9.69;72.33;100320.63;5012852;28;20492;-50
2023/11/27 04:41:09;;;;;;;16.80;10.68;;;;;;;9.72;72.29;100315.41;5012956;28;20096;-48
2023/11/27 04:43:34;;;;;;;16.30;10.60;;;;;;;9.76;71.65;100305.03;5012947;28;20029;-49
2023/11/27 04:45:59;;;;;;;17.08;10.48;;;;;;;9.68;72.06;100304.13;5013169;28;20056;-45
2023/11/27 04:48:25;;;;;;;16.88;11.30;;;;;;;9.68;72.06;100301.53;5014154;28;20088;-44
2023/11/27 04:50:50;;;;;;;17.13;11.40;;;;;;;9.66;71.62;100286.72;5012053;28;20139;-47
2023/11/27 04:53:16;;;;;;;16.05;10.57;;;;;;;9.55;71.75;100283.19;5012059;28;20148;-46
2023/11/27 04:55:41;;;;;;;17.23;10.93;;;;;;;9.50;72.95;100285.75;5014032;28;20484;-46
2023/11/27 04:58:07;;;;;;;17.50;11.38;;;;;;;9.58;72.32;100284.06;5013895;28;20088;-47
2023/11/27 05:00:32;;;;;;;18.45;11.48;;;;;;;9.68;71.83;100270.28;5013440;28;20710;-46
2023/11/27 05:02:58;;;;;;;18.33;10.70;;;;;;;9.18;73.33;100263.78;5013674;28;20037;-43
2023/11/27 05:05:23;;;;;;;15.63;10.98;;;;;;;9.60;72.06;100258.94;5013665;28;20026;-47
2023/11/27 05:07:49;;;;;;;17.67;10.65;;;;;;;9.69;71.50;100250.34;5013199;28;20517;-51
2023/11/27 05:10:14;;;;;;;15.57;10.10;;;;;;;9.59;72.10;100256.31;5012716;28;20486;-47
2023/11/27 05:12:40;;;;;;;15.18;10.20;;;;;;;9.59;72.02;100248.50;5014671;28;20036;-45
2023/11/27 05:15:06;;;;;;;13.80;9.63;;;;;;;9.59;71.99;100235.50;5014153;28;20050;-51
2023/11/27 05:17:31;;;;;;;15.02;9.18;;;;;;;9.65;71.44;100231.19;5013810;28;20036;-50
2023/11/27 05:19:57;;;;;;;14.80;9.30;;;;;;;9.68;71.15;100232.97;5012849;28;20112;-45
2023/11/27 05:22:22;;;;;;;14.05;9.32;;;;;;;9.40;71.62;100229.28;5014025;28;20034;-45
2023/11/27 05:24:47;;;;;;;14.25;9.50;;;;;;;9.53;71.93;100217.22;5013987;28;20038;-48
2023/11/27 05:27:13;;;;;;;13.77;9.25;;;;;;;9.61;71.33;100220.78;5012536;28;20076;-44
2023/11/27 05:29:39;;;;;;;14.73;9.50;;;;;;;9.43;71.86;100210.25;5012489;28;20041;-45
2023/11/27 05:32:08;;;;;;;13.93;9.60;;;;;;;9.51;71.72;100208.56;5012597;28;20458;-48
2023/11/27 05:34:37;;;;;;;14.20;9.35;;;;;;;9.67;71.58;100213.00;5013336;28;20034;-44
2023/11/27 05:37:08;;;;;;;13.70;9.10;;;;;;;9.59;71.79;100201.66;5012242;28;20038;-49
2023/11/27 05:39:35;;;;;;;13.63;9.05;;;;;;;9.60;71.36;100193.00;5013506;28;20116;-48
2023/11/27 05:42:03;;;;;;;15.13;9.57;;;;;;;9.57;71.44;100191.28;5012298;28;20034;-45
2023/11/27 05:44:29;;;;;;;15.20;9.90;;;;;;;9.68;71.38;100181.78;5012323;28;20053;-45
2023/11/27 05:46:55;;;;;;;16.30;10.35;;;;;;;9.68;71.24;100178.31;5011486;28;20145;-48
2023/11/27 05:49:20;;;;;;;15.00;9.77;;;;;;;9.71;71.53;100173.97;5010833;28;20396;-45
2023/11/27 05:51:46;;;;;;;15.15;9.57;;;;;;;9.73;71.24;100176.59;5011936;28;20034;-47
2023/11/27 05:54:11;;;;;;;15.13;10.05;;;;;;;9.75;71.19;100174.88;5011615;28;20391;-50
2023/11/27 05:56:37;;;;;;;17.65;10.25;;;;;;;9.65;71.33;100166.13;5011427;28;20038;-50
2023/11/27 05:59:03;;;;;;;16.70;10.15;;;;;;;9.82;71.09;100165.38;5011379;28;20034;-47
2023/11/27 06:01:29;;;;;;;15.23;10.02;;;;;;;9.51;72.21;100156.53;5011779;28;20038;-46
2023/11/27 06:03:54;;;;;;;14.00;9.65;;;;;;;9.70;71.43;100156.63;5009836;28;20040;-45
2023/11/27 06:06:20;;;;;;;14.50;9.70;;;;;;;9.51;72.07;100154.81;5011636;28;20037;-45
2023/11/27 06:08:45;;;;;;;14.70;9.30;;;;;;;9.46;71.97;100138.25;5011573;28;20077;-46
2023/11/27 06:11:11;;;;;;;15.25;9.90;;;;;;;9.60;71.61;100135.75;5010953;28;20117;-47
2023/11/27 06:13:36;;;;;;;13.65;9.32;;;;;;;9.66;71.40;100135.78;5011392;28;20038;-43
2023/11/27 06:16:02;;;;;;;16.85;9.98;;;;;;;9.69;71.33;100128.00;5010992;28;20077;-47
2023/11/27 06:18:27;;;;;;;15.05;9.43;;;;;;;9.58;71.40;100127.06;5011462;28;20038;-43
2023/11/27 06:20:53;;;;;;;14.60;9.90;;;;;;;9.60;71.88;100114.94;5009799;28;20037;-44
2023/11/27 06:23:18;;;;;;;15.00;9.98;;;;;;;9.60;72.25;100114.94;5011299;28;20034;-48
2023/11/27 06:25:44;;;;;;;14.02;9.68;;;;;;;9.72;71.41;100107.19;5011096;28;20030;-44
2023/11/27 06:28:13;;;;;;;14.25;9.85;;;;;;;9.52;72.14;100096.66;5010918;28;20046;-45
2023/11/27 06:30:39;;;;;;;15.05;9.38;;;;;;;9.55;71.77;100088.91;5011119;28;20114;-46
2023/11/27 06:33:04;;;;;;;13.45;9.32;;;;;;;9.57;72.46;100084.59;5010951;28;20061;-45
2023/11/27 06:35:30;;;;;;;14.77;10.32;;;;;;;9.61;72.17;100078.50;5011244;28;20034;-45
2023/11/27 06:37:55;;;;;;;14.93;10.25;;;;;;;9.70;71.67;100069.84;5010844;28;20030;-45
2023/11/27 06:40:24;;;;;;;15.50;10.45;;;;;;;9.78;71.33;100056.03;5011449;28;20061;-44
2023/11/27 06:42:49;;;;;;;16.58;10.55;;;;;;;9.53;72.19;100059.38;5011861;28;20030;-44
2023/11/27 06:45:14;;;;;;;15.00;10.23;;;;;;;9.67;71.67;100056.84;5010718;28;20036;-44
2023/11/27 06:47:40;;;;;;;15.63;10.13;;;;;;;9.41;72.42;100054.13;5010909;28;20495;-46
2023/11/27 06:50:05;;;;;;;16.13;10.63;;;;;;;9.60;71.96;100052.47;5010674;28;20034;-49
2023/11/27 06:52:31;;;;;;;16.10;10.93;;;;;;;9.64;71.84;100047.28;5011066;28;20033;-46
2023/11/27 06:54:56;;;;;;;16.05;10.52;;;;;;;9.50;71.90;100045.50;5010293;28;20030;-45
2023/11/27 06:57:21;;;;;;;17.30;11.15;;;;;;;9.66;72.19;100044.69;5010510;28;20097;-46
2023/11/27 06:59:47;;;;;;;14.63;10.35;;;;;;;9.65;71.81;100041.22;5008704;28;20030;-45
2023/11/27 07:02:12;;;;;;;16.65;10.88;;;;;;;9.62;72.42;100037.75;5010009;28;20030;-46
2023/11/27 07:04:39;;;;;;;17.52;10.75;;;;;;;9.50;72.60;100032.50;5010897;28;20033;-45
2023/11/27 07:07:04;;;;;;;16.20;10.57;;;;;;;9.58;72.28;100041.19;5010369;28;20038;-47
2023/11/27 07:09:30;;;;;;;15.18;10.63;;;;;;;9.78;71.67;100035.19;5010338;28;20037;-46
2023/11/27 07:11:55;;;;;;;16.60;10.73;;;;;;;9.48;72.84;100029.00;5010056;28;20037;-46
2023/11/27 07:14:20;;;;;;;16.23;11.13;;;;;;;9.71;72.22;100024.75;5010528;28;20036;-48
2023/11/27 07:16:45;;;;;;;15.18;10.55;;;;;;;9.84;71.71;100017.84;5010487;28;20038;-46
2023/11/27 07:19:13;;;;;;;15.82;10.38;;;;;;;9.95;71.52;100016.13;5009710;28;20025;-48
2023/11/27 07:21:39;;;;;;;14.98;10.60;;;;;;;9.55;72.46;100012.56;5010373;28;20436;-47
2023/11/27 07:24:04;;;;;;;16.80;10.65;;;;;;;9.80;72.41;100010.91;5010209;28;20041;-50
2023/11/27 07:26:30;;;;;;;16.35;10.98;;;;;;;9.90;71.52;100008.31;5010385;28;20121;-44
2023/11/27 07:28:55;;;;;;;15.85;10.85;;;;;;;9.86;71.88;100000.50;5009684;28;20038;-49
2023/11/27 07:31:21;;;;;;;18.50;10.85;;;;;;;9.59;73.15;100004.75;5010139;28;20030;-48
2023/11/27 07:33:47;;;;;;;16.65;11.50;;;;;;;9.94;71.79;99996.19;5010193;28;20521;-46
2023/11/27 07:36:13;;;;;;;17.58;11.27;;;;;;;9.69;73.01;99990.94;5009576;28;20030;-44
2023/11/27 07:38:40;;;;;;;16.70;11.13;;;;;;;9.86;72.40;99982.28;5009918;28;20528;-45
2023/11/27 07:41:06;;;;;;;15.73;10.48;;;;;;;9.74;72.62;99988.34;5009225;28;20495;-48
2023/11/27 07:43:35;;;;;;;16.75;11.05;;;;;;;9.84;72.57;99977.06;5009947;28;20037;-45
2023/11/27 07:46:06;;;;;;;17.45;11.00;;;;;;;10.02;72.03;99974.50;5009876;28;20407;-46
2023/11/27 07:48:32;;;;;;;18.25;10.85;;;;;;;10.08;71.67;99965.81;5009840;28;20493;-45
2023/11/27 07:50:58;;;;;;;17.08;11.25;;;;;;;9.96;72.00;99960.59;5009298;28;20041;-47
2023/11/27 07:53:24;;;;;;;17.88;12.07;;;;;;;9.60;73.36;99954.47;5010012;28;20040;-45
2023/11/27 07:55:49;;;;;;;17.95;11.75;;;;;;;9.95;72.64;99958.84;5009926;28;20463;-45
2023/11/27 07:58:15;;;;;;;19.73;12.27;;;;;;;9.60;73.24;99953.59;5009672;28;20030;-50
2023/11/27 08:00:41;;;;;;;20.65;13.10;;;;;;;9.57;74.00;99953.59;5010241;28;20033;-47
2023/11/27 08:03:06;;;;;;;20.88;12.57;;;;;;;9.78;73.45;99944.09;5010120;28;20515;-45
2023/11/27 08:05:32;;;;;;;22.35;12.15;;;;;;;9.71;72.99;99946.69;5010259;28;20450;-44
2023/11/27 08:07:57;;;;;;;19.98;13.00;;;;;;;9.64;73.36;99940.59;5009683;28;20042;-46
2023/11/27 08:10:23;;;;;;;20.27;12.52;;;;;;;9.19;74.83;99941.34;5010128;28;20121;-50
2023/11/27 08:12:49;;;;;;;20.48;12.52;;;;;;;9.90;72.82;99937.16;5012615;28;20040;-52
2023/11/27 08:15:18;;;;;;;20.73;12.55;;;;;;;10.08;72.09;99939.78;5014640;28;20030;-46
2023/11/27 08:17:49;;;;;;;20.65;13.13;;;;;;;9.98;72.52;99936.31;5013960;28;20468;-45
2023/11/27 08:20:15;;;;;;;19.98;12.88;;;;;;;9.67;73.68;99934.53;5013898;28;20060;-46
2023/11/27 08:22:44;;;;;;;20.30;13.07;;;;;;;9.81;73.84;99929.34;5013888;28;20033;-44
2023/11/27 08:25:10;;;;;;;20.40;13.70;;;;;;;9.73;73.71;99925.00;5013153;28;20694;-45
2023/11/27 08:27:38;;;;;;;20.75;12.95;;;;;;;9.98;72.39;99925.03;5013671;28;20026;-49
2023/11/27 08:30:07;;;;;;;19.45;12.68;;;;;;;9.78;72.92;99912.84;5012579;28;20116;-43
2023/11/27 08:32:32;;;;;;;19.83;12.85;;;;;;;10.15;72.02;99913.75;5013812;28;20065;-46
2023/11/27 08:34:58;;;;;;;19.77;13.02;;;;;;;10.16;71.87;99906.81;5013342;28;20088;-45
2023/11/27 08:37:24;;;;;;;18.50;12.48;;;;;;;10.31;71.79;99900.72;5014050;28;20030;-48
2023/11/27 08:39:49;;;;;;;18.35;12.55;;;;;;;10.23;71.93;99900.75;5028306;28;20488;-47
2023/11/27 08:42:14;;;;;;;20.67;12.60;;;;;;;10.22;71.50;99893.81;5012893;28;20037;-46
2023/11/27 08:44:39;;;;;;;20.80;12.85;;;;;;;10.09;72.83;99887.69;5014135;28;20527;-45
2023/11/27 08:47:05;;;;;;;19.17;12.82;;;;;;;9.72;74.03;99880.75;5015025;28;20058;-45
2023/11/27 08:49:30;;;;;;;19.75;13.02;;;;;;;10.09;72.68;99874.69;5016441;28;20037;-49
2023/11/27 08:51:56;;;;;;;20.65;13.57;;;;;;;9.96;73.30;99864.25;5014656;28;20057;-47
2023/11/27 08:54:21;;;;;;;21.17;13.48;;;;;;;10.11;72.91;99862.53;5014726;28;20120;-48
2023/11/27 08:56:47;;;;;;;21.20;13.40;;;;;;;9.79;73.44;99859.06;5015022;28;20037;-43
2023/11/27 08:59:12;;;;;;;19.95;13.30;;;;;;;10.02;72.81;99854.72;5014063;28;20080;-45
2023/11/27 09:01:38;;;;;;;19.73;13.00;;;;;;;10.09;72.42;99855.59;5013609;28;20030;-47
2023/11/27 09:04:04;;;;;;;20.35;13.30;;;;;;;10.18;72.79;99844.34;5012316;28;20519;-45
2023/11/27 09:06:29;;;;;;;19.02;12.88;;;;;;;9.90;74.04;99844.31;5013177;28;20103;-48
2023/11/27 09:08:55;;;;;;;20.67;13.23;;;;;;;10.01;73.31;99839.97;5013236;28;20034;-46
2023/11/27 09:11:20;;;;;;;19.73;13.10;;;;;;;10.08;73.45;99826.06;5013378;28;20446;-44
2023/11/27 09:13:46;;;;;;;23.25;13.23;;;;;;;10.27;72.38;99826.94;5015254;28;20033;-47
2023/11/27 09:16:12;;;;;;;19.20;12.93;;;;;;;9.68;74.44;99826.97;5013367;28;20029;-44
2023/11/27 09:18:37;;;;;;;19.45;12.98;;;;;;;10.23;72.92;99821.75;5013664;28;20037;-45
2023/11/27 09:21:03;;;;;;;19.38;12.90;;;;;;;10.07;73.52;99823.47;5012166;28;20404;-47
2023/11/27 09:23:29;;;;;;;19.35;13.13;;;;;;;10.18;73.46;99819.16;5012341;28;20118;-45
2023/11/27 09:25:54;;;;;;;20.45;13.23;;;;;;;9.88;74.75;99814.78;5012432;28;20567;-49
2023/11/27 09:28:19;;;;;;;19.55;13.18;;;;;;;10.17;73.21;99807.00;5012437;28;20037;-46
2023/11/27 09:30:44;;;;;;;19.98;13.32;;;;;;;10.44;72.75;99817.34;5012551;28;20040;-49
2023/11/27 09:33:12;;;;;;;21.02;13.65;;;;;;;10.51;72.23;99812.97;5012026;28;20504;-46
2023/11/27 09:35:38;;;;;;;19.88;12.73;;;;;;;10.64;72.05;99809.47;5012392;28;20037;-47
2023/11/27 09:38:05;;;;;;;22.58;13.27;;;;;;;10.46;72.66;99801.69;5011446;28;20137;-45
2023/11/27 09:40:39;;;;;;;20.35;13.27;;;;;;;10.67;71.74;99805.97;5012058;28;20045;-47
2023/11/27 09:43:04;;;;;;;18.48;12.95;;;;;;;10.76;71.72;99801.59;5011669;28;20038;-46
2023/11/27 09:45:31;;;;;;;19.75;12.68;;;;;;;10.47;72.90;99795.63;5012305;28;20073;-45
2023/11/27 09:47:57;;;;;;;20.00;12.98;;;;;;;10.62;72.41;99790.34;5011521;28;20042;-46
2023/11/27 09:50:23;;;;;;;18.35;12.77;;;;;;;10.34;73.89;99788.72;5010254;28;20044;-45
2023/11/27 09:52:54;;;;;;;18.02;12.95;;;;;;;10.53;73.38;99788.66;5011970;28;20087;-44
2023/11/27 09:55:20;;;;;;;18.42;12.13;;;;;;;10.74;72.81;99784.19;5011690;28;20034;-44
2023/11/27 09:57:47;;;;;;;17.38;12.43;;;;;;;10.29;73.76;99782.66;5011763;28;20558;-45
2023/11/27 10:00:14;;;;;;;17.75;12.32;;;;;;;10.70;72.68;99788.56;5011094;28;20083;-48
2023/11/27 10:02:40;;;;;;;17.83;12.48;;;;;;;10.70;72.97;99785.09;5012058;28;20659;-45
2023/11/27 10:05:08;;;;;;;17.77;12.20;;;;;;;10.75;72.38;99780.72;5010744;28;20038;-48
2023/11/27 10:07:37;;;;;;;17.02;12.05;;;;;;;10.78;72.92;99776.38;5011570;28;20042;-45
2023/11/27 10:10:07;;;;;;;18.70;12.27;;;;;;;10.97;71.91;99771.94;5011180;28;20065;-47
2023/11/27 10:12:35;;;;;;;17.13;12.35;;;;;;;10.89;71.97;99761.53;5010459;28;20066;-49
2023/11/27 10:15:04;;;;;;;17.45;12.07;;;;;;;10.85;72.59;99767.66;5011072;28;20030;-48
2023/11/27 10:17:34;;;;;;;17.33;12.10;;;;;;;10.89;72.76;99758.06;5011764;28;20033;-48
2023/11/27 10:20:00;;;;;;;18.40;12.30;;;;;;;11.02;71.65;99748.44;5011086;28;20772;-46
2023/11/27 10:22:32;;;;;;;16.90;11.43;;;;;;;11.01;72.02;99744.09;5011610;28;20034;-46
2023/11/27 10:25:00;;;;;;;17.00;11.80;;;;;;;11.02;71.89;99745.81;5011057;28;20041;-45
2023/11/27 10:27:26;;;;;;;20.25;13.35;;;;;;;10.86;72.08;99739.81;5011368;28;20679;-44
2023/11/27 10:29:52;;;;;;;19.55;13.02;;;;;;;10.91;71.84;99733.72;5011066;28;20075;-47
2023/11/27 10:32:22;;;;;;;21.35;13.43;;;;;;;10.98;71.79;99731.91;5011736;28;20037;-45
2023/11/27 10:34:49;;;;;;;24.35;13.07;;;;;;;10.89;71.72;99726.78;5011636;28;20030;-45
2023/11/27 10:37:15;;;;;;;18.45;13.15;;;;;;;10.81;72.34;99725.94;5012015;28;20511;-44
2023/11/27 10:39:40;;;;;;;19.85;12.82;;;;;;;10.80;72.33;99722.47;5011788;28;20117;-48
2023/11/27 10:42:07;;;;;;;19.42;12.73;;;;;;;10.80;72.27;99717.25;5010812;28;20492;-43
2023/11/27 10:44:36;;;;;;;19.13;12.40;;;;;;;10.89;71.90;99714.59;5011380;28;20049;-43
2023/11/27 10:47:04;;;;;;;20.10;12.70;;;;;;;10.86;72.27;99708.53;5011176;28;20038;-44
2023/11/27 10:49:32;;;;;;;17.77;12.15;;;;;;;10.96;71.79;99710.22;5012111;28;20125;-48
2023/11/27 10:52:00;;;;;;;18.80;12.50;;;;;;;10.74;71.75;99703.38;5011516;28;20030;-44
2023/11/27 10:54:30;;;;;;;19.73;12.63;;;;;;;10.85;72.41;99697.25;5011694;28;20034;-50
2023/11/27 10:57:02;;;;;;;20.50;12.90;;;;;;;10.51;72.04;99688.75;5009186;28;20447;-44
2023/11/27 10:59:30;;;;;;;20.02;12.95;;;;;;;10.44;73.10;99694.00;5010892;28;20041;-44
2023/11/27 11:02:00;;;;;;;19.00;11.77;;;;;;;10.54;72.64;99695.72;5010697;28;20038;-46
2023/11/27 11:04:37;;;;;;;16.65;11.85;;;;;;;10.34;73.71;99695.78;5010770;28;20037;-45
2023/11/27 11:07:18;;;;;;;16.80;11.57;;;;;;;10.40;73.32;99687.94;5010270;28;20046;-48
2023/11/27 11:09:52;;;;;;;16.02;10.80;;;;;;;10.66;72.21;99676.53;5010661;28;20026;-47
2023/11/27 11:12:20;;;;;;;15.02;10.82;;;;;;;10.81;72.08;99679.03;5010751;28;20041;-46
2023/11/27 11:14:47;;;;;;;14.98;10.77;;;;;;;10.40;73.24;99667.09;5010720;28;20026;-46